Time;durP1;ratioP1;P1;durP2;ratioP2;P2;SDS_P1;SDS_P2;PMS_P1;PMS_P2;Temp;Humidity;BMP_temperature;BMP_pressure;BME280_temperature;BME280_humidity;BME280_pressure;Samples;Min_cycle;Max_cycle;Signal;HPM_P1;HPM_P2
2023/03/20 00:01:31;;;;;;;11.60;9.30;;;;;;;;;;79763;261;3032638;-34
2023/03/20 00:04:11;;;;;;;10.30;8.90;;;;;;;;;;79752;261;3028136;-33
2023/03/20 00:06:50;;;;;;;10.30;8.60;;;;;;;;;;79830;261;3026918;-34
2023/03/20 00:09:30;;;;;;;10.00;8.90;;;;;;;;;;79813;261;3030429;-33
2023/03/20 00:12:09;;;;;;;10.10;8.80;;;;;;;;;;79798;261;3031304;-34
2023/03/20 00:14:49;;;;;;;10.30;8.70;;;;;;;;;;79795;261;3028231;-33
2023/03/20 00:17:28;;;;;;;10.10;8.70;;;;;;;;;;79834;261;3028139;-34
2023/03/20 00:20:05;;;;;;;9.90;8.60;;;;;;;;;;79841;261;3031458;-34
2023/03/20 00:22:44;;;;;;;10.80;8.90;;;;;;;;;;79812;261;3032036;-33
2023/03/20 00:25:26;;;;;;;10.10;8.90;;;;;;;;;;79823;261;3028572;-33
2023/03/20 00:28:36;;;;;;;9.80;8.60;;;;;;;;;;79799;261;3027526;-34
2023/03/20 00:31:24;;;;;;;10.80;8.40;;;;;;;;;;79820;261;3030284;-34
2023/03/20 00:34:03;;;;;;;10.00;8.30;;;;;;;;;;79817;261;3031575;-34
2023/03/20 00:36:41;;;;;;;9.60;8.60;;;;;;;;;;79810;261;3027995;-34
2023/03/20 00:39:17;;;;;;;9.30;7.80;;;;;;;;;;79820;261;3027602;-34
2023/03/20 00:41:55;;;;;;;9.50;8.20;;;;;;;;;;79838;261;3031272;-34
2023/03/20 00:44:41;;;;;;;10.10;8.50;;;;;;;;;;79823;261;3037918;-34
2023/03/20 00:47:23;;;;;;;9.50;7.80;;;;;;;;;;79818;253;3028477;-35
2023/03/20 00:50:01;;;;;;;11.30;8.30;;;;;;;;;;79817;261;3027532;-34
2023/03/20 00:52:38;;;;;;;10.70;8.50;;;;;;;;;;79774;261;3031306;-34
2023/03/20 00:55:16;;;;;;;9.40;8.00;;;;;;;;;;79841;261;3031278;-34
2023/03/20 00:57:55;;;;;;;9.30;7.80;;;;;;;;;;80606;260;3011562;-34
2023/03/20 01:00:39;;;;;;;9.70;8.40;;;;;;;;;;79794;284;3028083;-34
2023/03/20 01:03:20;;;;;;;9.20;7.80;;;;;;;;;;79825;261;3027726;-34
2023/03/20 01:05:57;;;;;;;9.70;8.30;;;;;;;;;;79824;260;3030388;-34
2023/03/20 01:08:38;;;;;;;9.90;8.30;;;;;;;;;;79826;260;3031716;-35
2023/03/20 01:11:17;;;;;;;9.30;8.10;;;;;;;;;;79866;249;3028416;-34
2023/03/20 01:13:56;;;;;;;9.80;8.10;;;;;;;;;;79812;261;3028027;-34
2023/03/20 01:16:36;;;;;;;9.70;8.50;;;;;;;;;;79849;260;3031300;-34
2023/03/20 01:19:15;;;;;;;10.00;8.50;;;;;;;;;;79822;260;3032179;-34
2023/03/20 01:21:51;;;;;;;9.00;7.80;;;;;;;;;;79832;261;3028378;-34
2023/03/20 01:24:31;;;;;;;9.40;8.20;;;;;;;;;;79785;261;3027489;-33
2023/03/20 01:27:15;;;;;;;9.40;8.20;;;;;;;;;;79843;261;3031348;-34
2023/03/20 01:29:52;;;;;;;;;;;;;;;;;;79844;261;3031467;-34
2023/03/20 01:32:33;;;;;;;10.40;8.00;;;;;;;;;;79839;261;3028996;-34
2023/03/20 01:35:11;;;;;;;9.40;8.30;;;;;;;;;;79743;261;3027814;-34
2023/03/20 01:37:48;;;;;;;10.10;8.30;;;;;;;;;;79821;261;3029406;-34
2023/03/20 01:40:45;;;;;;;9.70;8.30;;;;;;;;;;79827;260;3032430;-35
2023/03/20 01:43:23;;;;;;;9.30;7.90;;;;;;;;;;79842;261;3028786;-34
2023/03/20 01:46:03;;;;;;;9.00;8.10;;;;;;;;;;79915;261;3034666;-34
2023/03/20 01:49:44;;;;;;;9.90;8.50;;;;;;;;;;79820;261;3033513;-34
2023/03/20 01:52:24;;;;;;;9.40;7.70;;;;;;;;;;79847;261;3032108;-34
2023/03/20 01:55:03;;;;;;;9.10;7.60;;;;;;;;;;79812;261;3028535;-34
2023/03/20 01:57:40;;;;;;;9.90;8.50;;;;;;;;;;79845;261;3027859;-34
2023/03/20 02:00:19;;;;;;;9.60;8.50;;;;;;;;;;79840;260;3030730;-33
2023/03/20 02:02:56;;;;;;;9.70;8.10;;;;;;;;;;79811;261;3031396;-34
2023/03/20 02:05:37;;;;;;;9.70;8.20;;;;;;;;;;79811;261;3028026;-34
2023/03/20 02:08:25;;;;;;;9.60;8.20;;;;;;;;;;79818;261;3027802;-34
2023/03/20 02:11:04;;;;;;;9.50;8.30;;;;;;;;;;79816;261;3030870;-34
2023/03/20 02:13:41;;;;;;;9.50;8.40;;;;;;;;;;79813;261;3031527;-34
2023/03/20 02:16:19;;;;;;;9.60;8.40;;;;;;;;;;79765;261;3028258;-35
2023/03/20 02:19:02;;;;;;;9.70;8.40;;;;;;;;;;79839;260;3028454;-34
2023/03/20 02:22:04;;;;;;;9.40;8.40;;;;;;;;;;79825;257;3030998;-34
2023/03/20 02:25:21;;;;;;;10.00;8.50;;;;;;;;;;79804;261;3031783;-34
2023/03/20 02:28:29;;;;;;;9.20;7.70;;;;;;;;;;79873;261;3028859;-34
2023/03/20 02:31:46;;;;;;;9.70;8.70;;;;;;;;;;79804;261;3027290;-34
2023/03/20 02:35:12;;;;;;;8.80;7.90;;;;;;;;;;79817;261;3030066;-34
2023/03/20 02:38:26;;;;;;;10.10;8.40;;;;;;;;;;79809;261;3037007;-35
2023/03/20 02:41:12;;;;;;;9.20;8.10;;;;;;;;;;79800;261;3028100;-33
2023/03/20 02:43:58;;;;;;;9.90;8.50;;;;;;;;;;79823;261;3027983;-34
2023/03/20 02:46:44;;;;;;;9.60;8.40;;;;;;;;;;79826;261;3031172;-34
2023/03/20 02:49:32;;;;;;;9.90;8.80;;;;;;;;;;79711;263;3032755;-34
2023/03/20 02:52:18;;;;;;;10.40;8.90;;;;;;;;;;79839;261;3028803;-33
2023/03/20 02:55:09;;;;;;;10.20;8.80;;;;;;;;;;79818;261;3027549;-35
2023/03/20 02:57:56;;;;;;;9.80;8.70;;;;;;;;;;79780;261;3030983;-34
2023/03/20 03:00:35;;;;;;;10.50;8.80;;;;;;;;;;79813;261;3031638;-33
2023/03/20 03:03:16;;;;;;;10.40;8.30;;;;;;;;;;79852;261;3028519;-34
2023/03/20 03:06:00;;;;;;;11.00;9.00;;;;;;;;;;79807;261;3027144;-33
2023/03/20 03:08:45;;;;;;;10.00;8.70;;;;;;;;;;79794;265;3036569;-34
2023/03/20 03:11:22;;;;;;;10.50;9.10;;;;;;;;;;79845;276;3031113;-34
2023/03/20 03:14:01;;;;;;;10.70;9.30;;;;;;;;;;79841;265;3028095;-34
2023/03/20 03:16:43;;;;;;;10.10;8.70;;;;;;;;;;79799;261;3029946;-34
2023/03/20 03:19:25;;;;;;;10.20;9.10;;;;;;;;;;79815;261;3030601;-34
2023/03/20 03:22:08;;;;;;;10.30;8.30;;;;;;;;;;79856;261;3031159;-34
2023/03/20 03:24:49;;;;;;;10.30;9.00;;;;;;;;;;79869;261;3028559;-34
2023/03/20 03:27:29;;;;;;;10.20;8.60;;;;;;;;;;79812;264;3027294;-33
2023/03/20 03:30:13;;;;;;;10.20;9.10;;;;;;;;;;79821;261;3031445;-34
2023/03/20 03:32:58;;;;;;;10.10;9.00;;;;;;;;;;79821;261;3031880;-34
2023/03/20 03:35:34;;;;;;;10.20;8.90;;;;;;;;;;79840;261;3028617;-34
2023/03/20 03:38:26;;;;;;;10.20;9.10;;;;;;;;;;79830;261;3027953;-34
2023/03/20 03:41:19;;;;;;;10.60;9.30;;;;;;;;;;79823;257;3030977;-33
2023/03/20 03:44:07;;;;;;;10.80;9.10;;;;;;;;;;79846;261;3031527;-34
2023/03/20 03:46:48;;;;;;;10.50;8.80;;;;;;;;;;79673;261;3028584;-34
2023/03/20 03:49:32;;;;;;;10.40;9.20;;;;;;;;;;79797;261;3027412;-34
2023/03/20 03:52:14;;;;;;;9.80;8.70;;;;;;;;;;79836;259;3030931;-34
2023/03/20 03:54:53;;;;;;;10.20;9.10;;;;;;;;;;79824;261;3031098;-34
2023/03/20 03:57:34;;;;;;;10.30;9.00;;;;;;;;;;79784;261;3029413;-34
2023/03/20 04:00:17;;;;;;;10.40;9.30;;;;;;;;;;79824;261;3027717;-33
2023/03/20 04:02:57;;;;;;;10.40;9.00;;;;;;;;;;79834;261;3030696;-34
2023/03/20 04:05:34;;;;;;;9.80;8.80;;;;;;;;;;79819;261;3031787;-33
2023/03/20 04:08:11;;;;;;;11.20;9.20;;;;;;;;;;79787;261;3029433;-34
2023/03/20 04:10:49;;;;;;;10.30;9.10;;;;;;;;;;79819;261;3028053;-35
2023/03/20 04:13:27;;;;;;;11.70;9.50;;;;;;;;;;80559;261;3011722;-34
2023/03/20 04:16:04;;;;;;;12.30;9.70;;;;;;;;;;79812;261;3031212;-34
2023/03/20 04:18:39;;;;;;;10.90;9.80;;;;;;;;;;79807;261;3031883;-34
2023/03/20 04:21:15;;;;;;;11.90;9.60;;;;;;;;;;80529;261;3011452;-34
2023/03/20 04:23:52;;;;;;;11.30;10.00;;;;;;;;;;80552;261;3011119;-33
2023/03/20 04:26:32;;;;;;;11.80;9.50;;;;;;;;;;79824;261;3028630;-34
2023/03/20 04:29:07;;;;;;;12.50;9.70;;;;;;;;;;79804;261;3027752;-33
2023/03/20 04:31:44;;;;;;;10.80;9.40;;;;;;;;;;80577;261;3011968;-34
2023/03/20 04:34:19;;;;;;;10.70;9.50;;;;;;;;;;79829;261;3031353;-35
2023/03/20 04:36:55;;;;;;;11.10;9.20;;;;;;;;;;80561;261;3011560;-34
2023/03/20 04:39:32;;;;;;;12.50;9.70;;;;;;;;;;80542;261;3011600;-34
2023/03/20 04:42:08;;;;;;;11.50;9.90;;;;;;;;;;79863;261;3031777;-34
2023/03/20 04:44:45;;;;;;;11.40;10.00;;;;;;;;;;79842;260;3029046;-34
2023/03/20 04:47:20;;;;;;;12.50;10.50;;;;;;;;;;79830;261;3027613;-34
2023/03/20 04:49:58;;;;;;;11.40;10.10;;;;;;;;;;80533;249;3011677;-34
2023/03/20 04:52:34;;;;;;;11.50;10.30;;;;;;;;;;79833;261;3030645;-34
2023/03/20 04:55:10;;;;;;;12.90;10.00;;;;;;;;;;79832;261;3031957;-34
2023/03/20 04:57:44;;;;;;;11.60;10.10;;;;;;;;;;79811;261;3027945;-34
2023/03/20 05:00:22;;;;;;;12.10;10.30;;;;;;;;;;80549;261;3011564;-33
2023/03/20 05:02:56;;;;;;;12.10;10.50;;;;;;;;;;79814;261;3027481;-34
2023/03/20 05:05:36;;;;;;;12.40;10.10;;;;;;;;;;80498;261;3011449;-34
2023/03/20 05:08:16;;;;;;;11.60;9.90;;;;;;;;;;79812;261;3031226;-35
2023/03/20 05:10:52;;;;;;;12.40;10.60;;;;;;;;;;79804;261;3031742;-35
2023/03/20 05:13:28;;;;;;;13.00;11.00;;;;;;;;;;79843;261;3028042;-34
2023/03/20 05:16:06;;;;;;;11.50;10.00;;;;;;;;;;80570;261;3011420;-34
2023/03/20 05:18:45;;;;;;;11.70;10.00;;;;;;;;;;79854;261;3027205;-34
2023/03/20 05:21:22;;;;;;;11.60;10.30;;;;;;;;;;79775;261;3030697;-33
2023/03/20 05:24:00;;;;;;;12.50;10.40;;;;;;;;;;79842;261;3031267;-33
2023/03/20 05:26:36;;;;;;;11.50;10.30;;;;;;;;;;79864;261;3028500;-34
2023/03/20 05:29:14;;;;;;;11.20;9.90;;;;;;;;;;80539;261;3011279;-34
2023/03/20 05:31:52;;;;;;;11.70;10.00;;;;;;;;;;79843;261;3027243;-34
2023/03/20 05:34:29;;;;;;;12.80;10.50;;;;;;;;;;79737;262;3030660;-34
2023/03/20 05:37:06;;;;;;;11.50;10.30;;;;;;;;;;79708;262;3031543;-33
2023/03/20 05:39:44;;;;;;;11.80;10.20;;;;;;;;;;79702;262;3028311;-33
2023/03/20 05:42:23;;;;;;;12.10;10.20;;;;;;;;;;79724;262;3027255;-34
2023/03/20 05:45:00;;;;;;;11.50;10.30;;;;;;;;;;79720;262;3031048;-33
2023/03/20 05:47:37;;;;;;;11.20;10.00;;;;;;;;;;79717;262;3031797;-33
2023/03/20 05:50:15;;;;;;;12.50;10.50;;;;;;;;;;80432;262;3011442;-34
2023/03/20 05:52:53;;;;;;;11.50;10.30;;;;;;;;;;79748;262;3028051;-34
2023/03/20 05:55:31;;;;;;;11.40;10.20;;;;;;;;;;79767;258;3027487;-34
2023/03/20 05:58:10;;;;;;;11.60;10.40;;;;;;;;;;79757;262;3030940;-35
2023/03/20 06:00:48;;;;;;;12.50;10.70;;;;;;;;;;79702;262;3031826;-33
2023/03/20 06:03:26;;;;;;;12.10;10.60;;;;;;;;;;79736;262;3029030;-33
2023/03/20 06:06:04;;;;;;;12.50;10.90;;;;;;;;;;79776;255;3027668;-34
2023/03/20 06:08:40;;;;;;;11.80;10.30;;;;;;;;;;79730;262;3031115;-34
2023/03/20 06:11:19;;;;;;;12.90;11.00;;;;;;;;;;80444;262;3012643;-33
2023/03/20 06:13:58;;;;;;;12.60;11.00;;;;;;;;;;79695;262;3031921;-34
2023/03/20 06:16:34;;;;;;;11.30;10.00;;;;;;;;;;79744;262;3028146;-34
2023/03/20 06:19:17;;;;;;;11.80;10.40;;;;;;;;;;79746;262;3027544;-34
2023/03/20 06:21:53;;;;;;;11.80;10.40;;;;;;;;;;79728;262;3031237;-34
2023/03/20 06:24:32;;;;;;;13.30;10.60;;;;;;;;;;80441;266;3011457;-34
2023/03/20 06:27:09;;;;;;;12.60;10.50;;;;;;;;;;79720;262;3031270;-34
2023/03/20 06:29:45;;;;;;;12.20;10.90;;;;;;;;;;79740;262;3027888;-34
2023/03/20 06:32:21;;;;;;;13.10;10.80;;;;;;;;;;79719;262;3028043;-34
2023/03/20 06:34:57;;;;;;;12.30;10.50;;;;;;;;;;80560;261;3011299;-34
2023/03/20 06:37:32;;;;;;;13.60;10.50;;;;;;;;;;79660;261;3011194;-34
2023/03/20 06:40:10;;;;;;;12.40;10.70;;;;;;;;;;80544;261;3011550;-34
2023/03/20 06:42:44;;;;;;;12.70;11.00;;;;;;;;;;79821;261;3031636;-35
2023/03/20 06:45:21;;;;;;;12.70;11.30;;;;;;;;;;80543;249;3011424;-34
2023/03/20 06:47:55;;;;;;;13.90;11.50;;;;;;;;;;79848;261;3031994;-34
2023/03/20 06:50:31;;;;;;;13.00;11.60;;;;;;;;;;80559;261;3013248;-34
2023/03/20 06:53:06;;;;;;;14.10;11.70;;;;;;;;;;80511;261;3011548;-34
2023/03/20 06:55:42;;;;;;;12.70;11.40;;;;;;;;;;80552;261;3011674;-34
2023/03/20 06:58:19;;;;;;;14.10;11.80;;;;;;;;;;80563;261;3011284;-34
2023/03/20 07:00:54;;;;;;;14.40;12.00;;;;;;;;;;79807;259;3028539;-35
2023/03/20 07:03:30;;;;;;;14.20;12.50;;;;;;;;;;80530;261;3011773;-34
2023/03/20 07:06:06;;;;;;;14.00;12.50;;;;;;;;;;80539;261;3011554;-34
2023/03/20 07:08:41;;;;;;;14.70;13.00;;;;;;;;;;79845;261;3027890;-34
2023/03/20 07:11:17;;;;;;;15.10;13.30;;;;;;;;;;80572;261;3011500;-34
2023/03/20 07:13:53;;;;;;;15.60;13.50;;;;;;;;;;80537;261;3011523;-34
2023/03/20 07:16:30;;;;;;;15.70;13.40;;;;;;;;;;80568;284;3013405;-34
2023/03/20 07:19:04;;;;;;;16.30;14.30;;;;;;;;;;79813;261;3030779;-35
2023/03/20 07:21:40;;;;;;;17.00;14.60;;;;;;;;;;80566;261;3011452;-34
2023/03/20 07:24:17;;;;;;;16.00;14.20;;;;;;;;;;79792;261;3031687;-34
2023/03/20 07:26:55;;;;;;;17.30;15.10;;;;;;;;;;79848;261;3028138;-34
2023/03/20 07:29:33;;;;;;;17.20;15.40;;;;;;;;;;79825;260;3027240;-34
2023/03/20 07:32:10;;;;;;;17.40;15.60;;;;;;;;;;79803;261;3031141;-34
2023/03/20 07:34:46;;;;;;;17.70;15.50;;;;;;;;;;79820;261;3031334;-34
2023/03/20 07:37:21;;;;;;;17.60;15.70;;;;;;;;;;79828;261;3028120;-34
2023/03/20 07:39:56;;;;;;;17.90;16.00;;;;;;;;;;80540;261;3011658;-33
2023/03/20 07:42:32;;;;;;;17.40;15.50;;;;;;;;;;80508;261;3011563;-34
2023/03/20 07:45:10;;;;;;;17.70;15.80;;;;;;;;;;80582;261;3011276;-34
2023/03/20 07:47:47;;;;;;;17.90;16.00;;;;;;;;;;79824;261;3027297;-32
2023/03/20 07:50:22;;;;;;;18.50;16.50;;;;;;;;;;79844;261;3030941;-34
2023/03/20 07:52:58;;;;;;;18.80;16.50;;;;;;;;;;80518;261;3011523;-34
2023/03/20 07:55:35;;;;;;;19.80;17.10;;;;;;;;;;80567;261;3011582;-34
2023/03/20 07:58:11;;;;;;;18.40;15.80;;;;;;;;;;79898;261;3031560;-33
2023/03/20 08:00:46;;;;;;;18.70;16.70;;;;;;;;;;80586;261;3011395;-33
2023/03/20 08:03:24;;;;;;;18.40;16.50;;;;;;;;;;80528;261;3013194;-32
2023/03/20 08:06:03;;;;;;;20.80;18.60;;;;;;;;;;79761;261;3027910;-35
2023/03/20 08:08:39;;;;;;;20.10;17.70;;;;;;;;;;79770;261;3027455;-33
2023/03/20 08:11:14;;;;;;;20.30;17.90;;;;;;;;;;79769;261;3031257;-33
2023/03/20 08:13:51;;;;;;;20.20;18.00;;;;;;;;;;80408;316;3013325;-32
2023/03/20 08:16:29;;;;;;;21.20;18.10;;;;;;;;;;79775;261;3031888;-35
2023/03/20 08:19:05;;;;;;;20.40;18.30;;;;;;;;;;79734;254;3028038;-34
2023/03/20 08:21:43;;;;;;;19.20;17.10;;;;;;;;;;80458;261;3012656;-34
2023/03/20 08:24:20;;;;;;;20.30;17.80;;;;;;;;;;79811;261;3027217;-33
2023/03/20 08:26:57;;;;;;;19.30;17.10;;;;;;;;;;79837;261;3031167;-33
2023/03/20 08:29:34;;;;;;;19.10;17.00;;;;;;;;;;80550;261;3011742;-33
2023/03/20 08:32:11;;;;;;;20.10;17.30;;;;;;;;;;79793;261;3031806;-33
2023/03/20 08:34:50;;;;;;;19.90;17.60;;;;;;;;;;79823;261;3028717;-32
2023/03/20 08:37:26;;;;;;;19.60;17.00;;;;;;;;;;79846;261;3027342;-33
2023/03/20 08:40:01;;;;;;;19.70;17.10;;;;;;;;;;79855;261;3030959;-35
2023/03/20 08:42:43;;;;;;;19.10;17.10;;;;;;;;;;79802;261;3031103;-33
2023/03/20 08:45:20;;;;;;;19.70;17.50;;;;;;;;;;79796;261;3027846;-35
2023/03/20 08:47:59;;;;;;;19.00;17.00;;;;;;;;;;79820;261;3027423;-35
2023/03/20 08:50:37;;;;;;;18.90;16.80;;;;;;;;;;79867;261;3031226;-35
2023/03/20 08:53:12;;;;;;;19.60;16.50;;;;;;;;;;79842;261;3031451;-34
2023/03/20 08:55:53;;;;;;;18.30;16.30;;;;;;;;;;79785;261;3028669;-34
2023/03/20 08:58:31;;;;;;;18.40;16.50;;;;;;;;;;79854;261;3027898;-33
2023/03/20 09:01:11;;;;;;;18.10;16.20;;;;;;;;;;79807;261;3031129;-32
2023/03/20 09:03:50;;;;;;;18.70;16.10;;;;;;;;;;79829;261;3031312;-32
2023/03/20 09:06:26;;;;;;;17.60;15.70;;;;;;;;;;79804;261;3034242;-32
2023/03/20 09:09:03;;;;;;;17.80;15.90;;;;;;;;;;79849;261;3027464;-32
2023/03/20 09:11:39;;;;;;;17.70;15.90;;;;;;;;;;79790;261;3030586;-34
2023/03/20 09:14:18;;;;;;;17.90;16.00;;;;;;;;;;79791;261;3031829;-34
2023/03/20 09:16:57;;;;;;;17.70;15.70;;;;;;;;;;79810;261;3035880;-34
2023/03/20 09:19:33;;;;;;;17.50;15.60;;;;;;;;;;79833;261;3027606;-34
2023/03/20 09:22:10;;;;;;;17.40;15.60;;;;;;;;;;79845;261;3031394;-34
2023/03/20 09:24:47;;;;;;;16.90;15.10;;;;;;;;;;79796;261;3031208;-34
2023/03/20 09:27:24;;;;;;;17.50;15.70;;;;;;;;;;79853;277;3028789;-34
2023/03/20 09:30:01;;;;;;;17.60;15.80;;;;;;;;;;79840;261;3027692;-34
2023/03/20 09:32:41;;;;;;;17.20;15.40;;;;;;;;;;79830;261;3030548;-34
2023/03/20 09:35:17;;;;;;;17.10;15.20;;;;;;;;;;79798;253;3031357;-35
2023/03/20 09:37:53;;;;;;;16.70;14.80;;;;;;;;;;79860;261;3029041;-33
2023/03/20 09:40:31;;;;;;;17.30;14.40;;;;;;;;;;79811;261;3027536;-33
2023/03/20 09:43:17;;;;;;;19.30;15.40;;;;;;;;;;79812;261;3030717;-34
2023/03/20 09:46:01;;;;;;;18.00;14.60;;;;;;;;;;79800;261;3031640;-34
2023/03/20 09:48:50;;;;;;;17.70;14.70;;;;;;;;;;79832;261;3030665;-34
2023/03/20 09:51:40;;;;;;;15.40;13.80;;;;;;;;;;79799;260;3027407;-34
2023/03/20 09:54:27;;;;;;;16.80;14.30;;;;;;;;;;79828;261;3030739;-34
2023/03/20 09:57:06;;;;;;;16.80;14.50;;;;;;;;;;79792;261;3032688;-34
2023/03/20 09:59:44;;;;;;;16.80;14.30;;;;;;;;;;79809;261;3027812;-34
2023/03/20 10:02:25;;;;;;;16.00;14.00;;;;;;;;;;79823;261;3027750;-34
2023/03/20 10:05:07;;;;;;;16.20;13.80;;;;;;;;;;79819;261;3030714;-34
2023/03/20 10:07:46;;;;;;;16.80;13.60;;;;;;;;;;79788;261;3031629;-34
2023/03/20 10:10:28;;;;;;;16.60;13.80;;;;;;;;;;79788;260;3028040;-35
2023/03/20 10:13:24;;;;;;;15.70;13.50;;;;;;;;;;79804;261;3027403;-35
2023/03/20 10:16:14;;;;;;;15.30;13.00;;;;;;;;;;79780;249;3031272;-35
2023/03/20 10:18:59;;;;;;;14.70;12.90;;;;;;;;;;79727;261;3031933;-34
2023/03/20 10:21:47;;;;;;;15.60;13.30;;;;;;;;;;79773;261;3028357;-34
2023/03/20 10:24:31;;;;;;;15.00;13.00;;;;;;;;;;79807;261;3027138;-36
2023/03/20 10:27:17;;;;;;;14.60;12.40;;;;;;;;;;79752;261;3030449;-32
2023/03/20 10:30:04;;;;;;;15.30;13.20;;;;;;;;;;79707;260;3031777;-32
2023/03/20 10:32:46;;;;;;;13.90;12.40;;;;;;;;;;79800;261;3028071;-33
2023/03/20 10:35:31;;;;;;;14.50;13.00;;;;;;;;;;79803;260;3027376;-36
2023/03/20 10:38:24;;;;;;;14.50;12.70;;;;;;;;;;79702;260;3030913;-35
2023/03/20 10:41:04;;;;;;;14.50;12.60;;;;;;;;;;79786;261;3034297;-34
2023/03/20 10:43:41;;;;;;;14.60;13.00;;;;;;;;;;79785;261;3028508;-35
2023/03/20 10:46:21;;;;;;;15.00;13.30;;;;;;;;;;79759;261;3027070;-35
2023/03/20 10:49:05;;;;;;;18.10;14.10;;;;;;;;;;79775;261;3036999;-34
2023/03/20 10:51:50;;;;;;;17.70;14.00;;;;;;;;;;79809;260;3031442;-35
2023/03/20 10:54:29;;;;;;;17.10;13.60;;;;;;;;;;79761;261;3028230;-35
2023/03/20 10:57:09;;;;;;;15.90;13.80;;;;;;;;;;79719;260;3027896;-37
2023/03/20 10:59:49;;;;;;;15.80;13.50;;;;;;;;;;79728;261;3031262;-38
2023/03/20 11:02:32;;;;;;;16.40;14.10;;;;;;;;;;79791;261;3031130;-39
2023/03/20 11:05:23;;;;;;;16.20;14.40;;;;;;;;;;79796;261;3028603;-37
2023/03/20 11:08:08;;;;;;;17.40;14.90;;;;;;;;;;79702;261;3027909;-36
2023/03/20 11:10:50;;;;;;;16.90;13.80;;;;;;;;;;79716;260;3031228;-33
2023/03/20 11:13:32;;;;;;;16.40;14.30;;;;;;;;;;79710;260;3031985;-35
2023/03/20 11:16:23;;;;;;;16.90;14.40;;;;;;;;;;79820;260;3028778;-35
2023/03/20 11:19:07;;;;;;;17.30;14.60;;;;;;;;;;79787;260;3028490;-35
2023/03/20 11:21:51;;;;;;;18.40;15.50;;;;;;;;;;79738;261;3030871;-35
2023/03/20 11:24:38;;;;;;;18.10;15.40;;;;;;;;;;79790;261;3031135;-35
2023/03/20 11:27:17;;;;;;;18.30;16.10;;;;;;;;;;79774;261;3028054;-35
2023/03/20 11:29:55;;;;;;;18.00;16.10;;;;;;;;;;79841;319;3033264;-35
2023/03/20 11:32:35;;;;;;;18.20;16.30;;;;;;;;;;79781;260;3030703;-34
2023/03/20 11:35:31;;;;;;;19.10;16.60;;;;;;;;;;79826;259;3031361;-35
2023/03/20 11:38:17;;;;;;;19.80;16.50;;;;;;;;;;79744;261;3028077;-35
2023/03/20 11:40:58;;;;;;;17.60;15.80;;;;;;;;;;79837;261;3026960;-35
2023/03/20 11:43:43;;;;;;;18.10;15.80;;;;;;;;;;79839;260;3031522;-35
2023/03/20 11:46:22;;;;;;;18.20;16.20;;;;;;;;;;79862;261;3032377;-35
2023/03/20 11:49:20;;;;;;;18.10;16.20;;;;;;;;;;79745;261;3028452;-34
2023/03/20 11:51:56;;;;;;;18.00;16.10;;;;;;;;;;79745;261;3028023;-35
2023/03/20 11:54:33;;;;;;;19.10;17.00;;;;;;;;;;79781;260;3031266;-35
2023/03/20 11:57:31;;;;;;;19.10;16.60;;;;;;;;;;79857;314;3032366;-35
2023/03/20 12:00:21;;;;;;;18.10;16.20;;;;;;;;;;79791;260;3028102;-34
2023/03/20 12:02:57;;;;;;;18.80;16.70;;;;;;;;;;79791;261;3027702;-34
2023/03/20 12:05:36;;;;;;;19.60;17.00;;;;;;;;;;79834;260;3031086;-35
2023/03/20 12:08:20;;;;;;;17.50;15.70;;;;;;;;;;79783;261;3031942;-35
2023/03/20 12:11:01;;;;;;;17.20;15.40;;;;;;;;;;79808;260;3034719;-34
2023/03/20 12:13:44;;;;;;;17.70;15.80;;;;;;;;;;79793;249;3027755;-35
2023/03/20 12:16:26;;;;;;;;;;;;;;;;;;79888;261;3032131;-35
2023/03/20 12:19:11;;;;;;;17.90;16.00;;;;;;;;;;79819;260;3031219;-35
2023/03/20 12:21:52;;;;;;;17.60;15.70;;;;;;;;;;79815;261;3028377;-35
2023/03/20 12:24:40;;;;;;;17.10;15.20;;;;;;;;;;79802;261;3027320;-35
2023/03/20 12:27:26;;;;;;;17.40;15.60;;;;;;;;;;79821;260;3030722;-35
2023/03/20 12:30:13;;;;;;;18.30;15.10;;;;;;;;;;79696;262;3032139;-35
2023/03/20 12:32:54;;;;;;;17.60;15.60;;;;;;;;;;79851;260;3028615;-34
2023/03/20 12:35:31;;;;;;;17.20;15.30;;;;;;;;;;79817;261;3027747;-35
2023/03/20 12:38:27;;;;;;;16.90;15.10;;;;;;;;;;79799;260;3031178;-35
2023/03/20 12:41:13;;;;;;;16.60;14.80;;;;;;;;;;79770;260;3031628;-37
2023/03/20 12:44:25;;;;;;;16.40;14.70;;;;;;;;;;79751;262;3027883;-34
2023/03/20 12:47:17;;;;;;;16.50;14.60;;;;;;;;;;79791;260;3027291;-33
2023/03/20 12:50:06;;;;;;;15.70;14.10;;;;;;;;;;79785;261;3030898;-34
2023/03/20 12:52:56;;;;;;;16.10;14.30;;;;;;;;;;79780;260;3031732;-33
2023/03/20 12:55:51;;;;;;;16.20;14.40;;;;;;;;;;79806;260;3028847;-34
2023/03/20 12:58:40;;;;;;;16.10;14.20;;;;;;;;;;79793;261;3027442;-35
2023/03/20 13:01:23;;;;;;;15.90;14.30;;;;;;;;;;79786;261;3031670;-36
2023/03/20 13:04:31;;;;;;;17.10;14.20;;;;;;;;;;79741;260;3031524;-36
2023/03/20 13:07:19;;;;;;;16.20;14.50;;;;;;;;;;79778;249;3028233;-34
2023/03/20 13:10:10;;;;;;;15.90;14.30;;;;;;;;;;79753;261;3027315;-35
2023/03/20 13:13:04;;;;;;;15.90;14.20;;;;;;;;;;79752;277;3030780;-35
2023/03/20 13:15:56;;;;;;;15.20;13.70;;;;;;;;;;79766;260;3031570;-35
2023/03/20 13:18:45;;;;;;;15.40;13.80;;;;;;;;;;79773;261;3029012;-34
2023/03/20 13:21:34;;;;;;;15.30;13.60;;;;;;;;;;79757;261;3027322;-33
2023/03/20 13:24:34;;;;;;;15.80;14.20;;;;;;;;;;79794;260;3030887;-35
2023/03/20 13:27:24;;;;;;;15.50;13.90;;;;;;;;;;79793;261;3031402;-34
2023/03/20 13:30:08;;;;;;;15.70;14.10;;;;;;;;;;79746;261;3028408;-36
2023/03/20 13:32:57;;;;;;;15.20;13.60;;;;;;;;;;79771;260;3034068;-37
2023/03/20 13:35:43;;;;;;;15.10;13.40;;;;;;;;;;79770;260;3031121;-34
2023/03/20 13:38:23;;;;;;;15.40;13.80;;;;;;;;;;79757;260;3032002;-35
2023/03/20 13:41:08;;;;;;;15.50;13.90;;;;;;;;;;79748;261;3028449;-36
2023/03/20 13:43:53;;;;;;;14.30;12.80;;;;;;;;;;79735;260;3027716;-36
2023/03/20 13:46:34;;;;;;;15.00;13.40;;;;;;;;;;79769;261;3031288;-38
2023/03/20 13:49:16;;;;;;;15.70;14.10;;;;;;;;;;79799;260;3031292;-37
2023/03/20 13:51:58;;;;;;;19.90;17.80;;;;;;;;;;79753;260;3028492;-34
2023/03/20 13:55:04;;;;;;;18.90;17.00;;;;;;;;;;79772;261;3027664;-36
2023/03/20 13:58:01;;;;;;;21.40;19.10;;;;;;;;;;79820;260;3030472;-34
2023/03/20 14:00:47;;;;;;;22.90;20.60;;;;;;;;;;79800;260;3031785;-34
2023/03/20 14:03:32;;;;;;;21.90;19.60;;;;;;;;;;79756;261;3033767;-38
2023/03/20 14:06:45;;;;;;;21.40;19.20;;;;;;;;;;79784;261;3027229;-34
2023/03/20 14:09:35;;;;;;;22.00;19.80;;;;;;;;;;79820;260;3031017;-33
2023/03/20 14:12:12;;;;;;;21.10;18.90;;;;;;;;;;79765;261;3031702;-33
2023/03/20 14:14:52;;;;;;;22.30;20.00;;;;;;;;;;79762;261;3028605;-33
2023/03/20 14:17:31;;;;;;;20.60;18.50;;;;;;;;;;79752;260;3027880;-35
2023/03/20 14:20:28;;;;;;;19.80;17.40;;;;;;;;;;79759;249;3030922;-36
2023/03/20 14:23:19;;;;;;;18.10;16.20;;;;;;;;;;79786;260;3031921;-36
2023/03/20 14:25:59;;;;;;;17.50;15.60;;;;;;;;;;79683;263;3028788;-34
2023/03/20 14:28:45;;;;;;;16.70;14.90;;;;;;;;;;79738;259;3027858;-34
2023/03/20 14:31:36;;;;;;;16.60;14.90;;;;;;;;;;79770;261;3030806;-35
2023/03/20 14:34:22;;;;;;;16.80;14.80;;;;;;;;;;79716;261;3038410;-36
2023/03/20 14:37:04;;;;;;;16.40;14.60;;;;;;;;;;79473;261;3344755;-36
2023/03/20 14:39:52;;;;;;;16.10;14.40;;;;;;;;;;79802;260;3027546;-36
2023/03/20 14:42:46;;;;;;;15.70;14.10;;;;;;;;;;79743;261;3031257;-36
2023/03/20 14:45:37;;;;;;;15.80;13.80;;;;;;;;;;79770;261;3031934;-36
2023/03/20 14:48:28;;;;;;;14.90;13.40;;;;;;;;;;79779;261;3029973;-36
2023/03/20 14:51:20;;;;;;;15.20;13.60;;;;;;;;;;79792;260;3028029;-36
2023/03/20 14:54:19;;;;;;;14.70;13.10;;;;;;;;;;79714;261;3031033;-36
2023/03/20 14:56:54;;;;;;;14.10;12.50;;;;;;;;;;79764;260;3032016;-36
2023/03/20 14:59:32;;;;;;;14.50;13.00;;;;;;;;;;79756;260;3028564;-36
2023/03/20 15:02:18;;;;;;;14.60;12.70;;;;;;;;;;79779;260;3028630;-36
2023/03/20 15:04:54;;;;;;;13.90;12.50;;;;;;;;;;79857;260;3036130;-36
2023/03/20 15:07:36;;;;;;;13.30;11.70;;;;;;;;;;79729;249;3031599;-36
2023/03/20 15:10:12;;;;;;;13.40;11.70;;;;;;;;;;79796;261;3028799;-36
2023/03/20 15:12:47;;;;;;;13.00;11.60;;;;;;;;;;79818;272;3027141;-36
2023/03/20 15:15:30;;;;;;;12.80;11.50;;;;;;;;;;80557;261;3011546;-36
2023/03/20 15:18:13;;;;;;;13.30;12.00;;;;;;;;;;79811;260;3031530;-36
2023/03/20 15:20:48;;;;;;;12.30;11.00;;;;;;;;;;79832;260;3031800;-36
2023/03/20 15:23:24;;;;;;;12.30;11.00;;;;;;;;;;80516;260;3011505;-36
2023/03/20 15:26:01;;;;;;;12.40;11.10;;;;;;;;;;79787;261;3028298;-36
2023/03/20 15:28:38;;;;;;;11.70;10.50;;;;;;;;;;79861;261;3027994;-36
2023/03/20 15:31:24;;;;;;;11.70;10.50;;;;;;;;;;79820;261;3031612;-36
2023/03/20 15:34:00;;;;;;;12.20;10.80;;;;;;;;;;79700;260;3032461;-36
2023/03/20 15:36:40;;;;;;;12.30;10.80;;;;;;;;;;79808;261;3028774;-36